sensor_id;sensor_type;location;lat;lon;timestamp;pressure;altitude;pressure_sealevel;temperature;humidity
31346;BME280;21711;49.708;18.568;2023-03-08T00:01:19;95614.88;;;4.37;80.35
31346;BME280;21711;49.708;18.568;2023-03-08T00:03:56;95621.72;;;4.32;80.75
31346;BME280;21711;49.708;18.568;2023-03-08T00:06:25;95620.06;;;4.47;79.56
31346;BME280;21711;49.708;18.568;2023-03-08T00:08:58;95626.53;;;4.55;79.83
31346;BME280;21711;49.708;18.568;2023-03-08T00:11:27;95619.97;;;4.57;79.35
31346;BME280;21711;49.708;18.568;2023-03-08T00:13:55;95624.25;;;4.48;81.03
31346;BME280;21711;49.708;18.568;2023-03-08T00:16:22;95628.25;;;4.35;81.48
31346;BME280;21711;49.708;18.568;2023-03-08T00:18:50;95636.59;;;4.37;81.63
31346;BME280;21711;49.708;18.568;2023-03-08T00:21:17;95633.41;;;4.45;82.08
31346;BME280;21711;49.708;18.568;2023-03-08T00:23:45;95640.25;;;4.41;81.74
31346;BME280;21711;49.708;18.568;2023-03-08T00:26:12;95644.72;;;4.36;83.03
31346;BME280;21711;49.708;18.568;2023-03-08T00:28:40;95638.72;;;4.30;83.67
31346;BME280;21711;49.708;18.568;2023-03-08T00:31:10;95642.16;;;4.30;83.91
31346;BME280;21711;49.708;18.568;2023-03-08T00:33:38;95641.13;;;4.26;84.62
31346;BME280;21711;49.708;18.568;2023-03-08T00:36:17;95642.09;;;4.36;84.44
31346;BME280;21711;49.708;18.568;2023-03-08T00:38:46;95654.44;;;4.35;84.91
31346;BME280;21711;49.708;18.568;2023-03-08T00:41:14;95651.06;;;4.29;84.65
31346;BME280;21711;49.708;18.568;2023-03-08T00:43:41;95652.34;;;4.32;85.50
31346;BME280;21711;49.708;18.568;2023-03-08T00:46:10;95653.66;;;4.29;85.07
31346;BME280;21711;49.708;18.568;2023-03-08T00:48:38;95640.66;;;4.19;85.68
31346;BME280;21711;49.708;18.568;2023-03-08T00:51:07;95640.91;;;4.17;86.37
31346;BME280;21711;49.708;18.568;2023-03-08T00:53:37;95630.22;;;4.14;85.21
31346;BME280;21711;49.708;18.568;2023-03-08T00:56:05;95630.38;;;4.28;84.88
31346;BME280;21711;49.708;18.568;2023-03-08T00:58:32;95628.34;;;4.19;84.01
31346;BME280;21711;49.708;18.568;2023-03-08T01:01:00;95636.19;;;4.19;83.82
31346;BME280;21711;49.708;18.568;2023-03-08T01:03:28;95634.13;;;4.16;83.47
31346;BME280;21711;49.708;18.568;2023-03-08T01:05:57;95632.59;;;4.05;84.39
31346;BME280;21711;49.708;18.568;2023-03-08T01:08:26;95642.00;;;4.06;83.96
31346;BME280;21711;49.708;18.568;2023-03-08T01:10:58;95640.25;;;3.96;83.73
31346;BME280;21711;49.708;18.568;2023-03-08T01:13:33;95640.81;;;3.88;84.85
31346;BME280;21711;49.708;18.568;2023-03-08T01:16:01;95641.88;;;3.81;84.81
31346;BME280;21711;49.708;18.568;2023-03-08T01:18:29;95641.63;;;3.83;84.17
31346;BME280;21711;49.708;18.568;2023-03-08T01:21:02;95647.13;;;3.81;84.37
31346;BME280;21711;49.708;18.568;2023-03-08T01:23:31;95640.59;;;3.79;84.69
31346;BME280;21711;49.708;18.568;2023-03-08T01:26:09;95651.88;;;3.64;84.14
31346;BME280;21711;49.708;18.568;2023-03-08T01:28:37;95647.19;;;3.66;84.16
31346;BME280;21711;49.708;18.568;2023-03-08T01:31:18;95652.94;;;3.63;84.61
31346;BME280;21711;49.708;18.568;2023-03-08T01:33:47;95656.56;;;3.72;83.73
31346;BME280;21711;49.708;18.568;2023-03-08T01:36:18;95654.00;;;3.62;83.14
31346;BME280;21711;49.708;18.568;2023-03-08T01:38:46;95657.09;;;3.64;83.11
31346;BME280;21711;49.708;18.568;2023-03-08T01:41:17;95657.91;;;3.64;82.72
31346;BME280;21711;49.708;18.568;2023-03-08T01:43:47;95655.56;;;3.63;82.18
31346;BME280;21711;49.708;18.568;2023-03-08T01:46:29;95654.50;;;3.64;82.21
31346;BME280;21711;49.708;18.568;2023-03-08T01:49:29;95650.81;;;3.65;81.75
31346;BME280;21711;49.708;18.568;2023-03-08T01:52:05;95649.53;;;3.57;81.41
31346;BME280;21711;49.708;18.568;2023-03-08T01:54:43;95650.84;;;3.60;81.44
31346;BME280;21711;49.708;18.568;2023-03-08T01:57:38;95649.25;;;3.64;81.19
31346;BME280;21711;49.708;18.568;2023-03-08T02:00:22;95654.00;;;3.62;80.42
31346;BME280;21711;49.708;18.568;2023-03-08T02:03:06;95651.63;;;3.65;80.36
31346;BME280;21711;49.708;18.568;2023-03-08T02:05:37;95645.13;;;3.58;80.21
31346;BME280;21711;49.708;18.568;2023-03-08T02:08:13;95643.03;;;3.49;81.17
31346;BME280;21711;49.708;18.568;2023-03-08T02:10:42;95649.53;;;3.57;80.84
31346;BME280;21711;49.708;18.568;2023-03-08T02:13:10;95650.59;;;3.56;81.24
31346;BME280;21711;49.708;18.568;2023-03-08T02:15:41;95651.97;;;3.43;81.10
31346;BME280;21711;49.708;18.568;2023-03-08T02:18:09;95658.19;;;3.58;80.75
31346;BME280;21711;49.708;18.568;2023-03-08T02:20:39;95663.66;;;3.61;80.24
31346;BME280;21711;49.708;18.568;2023-03-08T02:23:16;95661.03;;;3.61;79.63
31346;BME280;21711;49.708;18.568;2023-03-08T02:26:03;95657.63;;;3.61;78.86
31346;BME280;21711;49.708;18.568;2023-03-08T02:28:32;95659.22;;;3.62;78.86
31346;BME280;21711;49.708;18.568;2023-03-08T02:30:59;95662.38;;;3.53;78.14
31346;BME280;21711;49.708;18.568;2023-03-08T02:33:27;95653.50;;;3.44;77.89
31346;BME280;21711;49.708;18.568;2023-03-08T02:35:56;95657.66;;;3.50;78.01
31346;BME280;21711;49.708;18.568;2023-03-08T02:38:25;95648.56;;;3.37;77.92
31346;BME280;21711;49.708;18.568;2023-03-08T02:40:53;95646.75;;;3.33;76.79
31346;BME280;21711;49.708;18.568;2023-03-08T02:43:20;95653.50;;;3.44;77.18
31346;BME280;21711;49.708;18.568;2023-03-08T02:45:48;95652.25;;;3.31;76.73
31346;BME280;21711;49.708;18.568;2023-03-08T02:48:15;95652.25;;;3.31;76.43
31346;BME280;21711;49.708;18.568;2023-03-08T02:50:43;95650.19;;;3.12;77.03
31346;BME280;21711;49.708;18.568;2023-03-08T02:53:11;95657.22;;;3.17;77.00
31346;BME280;21711;49.708;18.568;2023-03-08T02:55:38;95660.88;;;3.21;76.68
31346;BME280;21711;49.708;18.568;2023-03-08T02:58:10;95668.47;;;3.18;76.30
31346;BME280;21711;49.708;18.568;2023-03-08T03:00:38;95668.19;;;3.19;75.99
31346;BME280;21711;49.708;18.568;2023-03-08T03:03:05;95676.28;;;3.23;75.91
31346;BME280;21711;49.708;18.568;2023-03-08T03:05:32;95683.34;;;3.17;75.46
31346;BME280;21711;49.708;18.568;2023-03-08T03:08:03;95671.56;;;3.25;75.50
31346;BME280;21711;49.708;18.568;2023-03-08T03:10:31;95691.44;;;3.10;76.85
31346;BME280;21711;49.708;18.568;2023-03-08T03:13:00;95691.97;;;3.12;76.45
31346;BME280;21711;49.708;18.568;2023-03-08T03:15:29;95691.44;;;3.10;76.10
31346;BME280;21711;49.708;18.568;2023-03-08T03:17:58;95693.78;;;3.17;75.99
31346;BME280;21711;49.708;18.568;2023-03-08T03:20:26;95707.88;;;3.26;75.75
31346;BME280;21711;49.708;18.568;2023-03-08T03:22:53;95711.56;;;3.25;75.29
31346;BME280;21711;49.708;18.568;2023-03-08T03:25:26;95710.00;;;3.29;75.12
31346;BME280;21711;49.708;18.568;2023-03-08T03:27:55;95711.28;;;3.42;73.83
31346;BME280;21711;49.708;18.568;2023-03-08T03:30:24;95722.25;;;3.39;73.56
31346;BME280;21711;49.708;18.568;2023-03-08T03:32:52;95733.50;;;3.40;73.36
31346;BME280;21711;49.708;18.568;2023-03-08T03:35:24;95730.09;;;3.50;71.78
31346;BME280;21711;49.708;18.568;2023-03-08T03:37:52;95735.56;;;3.59;71.36
31346;BME280;21711;49.708;18.568;2023-03-08T03:40:20;95728.50;;;3.59;71.12
31346;BME280;21711;49.708;18.568;2023-03-08T03:42:52;95738.94;;;3.70;70.25
31346;BME280;21711;49.708;18.568;2023-03-08T03:45:19;95732.44;;;3.46;71.08
31346;BME280;21711;49.708;18.568;2023-03-08T03:47:47;95743.41;;;3.59;71.42
31346;BME280;21711;49.708;18.568;2023-03-08T03:50:15;95743.91;;;3.66;70.72
31346;BME280;21711;49.708;18.568;2023-03-08T03:52:56;95741.28;;;3.61;70.62
31346;BME280;21711;49.708;18.568;2023-03-08T03:55:24;95747.59;;;3.54;70.52
31346;BME280;21711;49.708;18.568;2023-03-08T03:57:52;95748.09;;;3.51;70.54
31346;BME280;21711;49.708;18.568;2023-03-08T04:00:20;95753.63;;;3.50;70.94
31346;BME280;21711;49.708;18.568;2023-03-08T04:02:58;95755.97;;;3.41;70.72
31346;BME280;21711;49.708;18.568;2023-03-08T04:05:27;95755.44;;;3.49;70.89
31346;BME280;21711;49.708;18.568;2023-03-08T04:07:55;95754.91;;;3.58;69.78
31346;BME280;21711;49.708;18.568;2023-03-08T04:10:26;95753.06;;;3.48;69.65
31346;BME280;21711;49.708;18.568;2023-03-08T04:12:53;95753.09;;;3.42;70.07
31346;BME280;21711;49.708;18.568;2023-03-08T04:15:21;95759.63;;;3.45;69.82
31346;BME280;21711;49.708;18.568;2023-03-08T04:17:50;95754.41;;;3.40;70.05
31346;BME280;21711;49.708;18.568;2023-03-08T04:20:22;95753.63;;;3.45;70.52
31346;BME280;21711;49.708;18.568;2023-03-08T04:22:54;95753.88;;;3.38;69.79
31346;BME280;21711;49.708;18.568;2023-03-08T04:25:28;95753.34;;;3.41;70.71
31346;BME280;21711;49.708;18.568;2023-03-08T04:27:58;95758.56;;;3.41;70.59
31346;BME280;21711;49.708;18.568;2023-03-08T04:30:26;95751.53;;;3.31;70.75
31346;BME280;21711;49.708;18.568;2023-03-08T04:32:55;95752.31;;;3.37;71.12
31346;BME280;21711;49.708;18.568;2023-03-08T04:35:27;95758.56;;;3.41;70.99
31346;BME280;21711;49.708;18.568;2023-03-08T04:37:54;95756.50;;;3.38;71.28
31346;BME280;21711;49.708;18.568;2023-03-08T04:40:24;95760.13;;;3.37;71.06
31346;BME280;21711;49.708;18.568;2023-03-08T04:42:56;95763.81;;;3.36;71.80
31346;BME280;21711;49.708;18.568;2023-03-08T04:45:33;95761.47;;;3.45;70.92
31346;BME280;21711;49.708;18.568;2023-03-08T04:48:04;95775.31;;;3.35;71.27
31346;BME280;21711;49.708;18.568;2023-03-08T04:50:32;95776.88;;;3.31;71.73
31346;BME280;21711;49.708;18.568;2023-03-08T04:52:59;95784.19;;;3.34;72.30
31346;BME280;21711;49.708;18.568;2023-03-08T04:55:27;95772.94;;;3.33;72.13
31346;BME280;21711;49.708;18.568;2023-03-08T04:57:55;95773.75;;;3.34;71.97
31346;BME280;21711;49.708;18.568;2023-03-08T05:00:24;95775.31;;;3.35;71.72
31346;BME280;21711;49.708;18.568;2023-03-08T05:02:52;95778.16;;;3.44;71.12
31346;BME280;21711;49.708;18.568;2023-03-08T05:05:53;95776.88;;;3.57;71.10
31346;BME280;21711;49.708;18.568;2023-03-08T05:08:21;95776.88;;;3.57;72.55
31346;BME280;21711;49.708;18.568;2023-03-08T05:10:56;95772.66;;;3.55;70.65
31346;BME280;21711;49.708;18.568;2023-03-08T05:13:33;95778.19;;;3.59;71.03
31346;BME280;21711;49.708;18.568;2023-03-08T05:16:04;95788.38;;;3.40;71.75
31346;BME280;21711;49.708;18.568;2023-03-08T05:18:32;95789.41;;;3.49;71.76
31346;BME280;21711;49.708;18.568;2023-03-08T05:21:05;95794.38;;;3.51;71.50
31346;BME280;21711;49.708;18.568;2023-03-08T05:23:34;95789.66;;;3.53;71.73
31346;BME280;21711;49.708;18.568;2023-03-08T05:26:03;95797.25;;;3.49;71.11
31346;BME280;21711;49.708;18.568;2023-03-08T05:28:33;95799.06;;;3.49;69.98
31346;BME280;21711;49.708;18.568;2023-03-08T05:31:09;95804.59;;;3.47;70.69
31346;BME280;21711;49.708;18.568;2023-03-08T05:33:38;95808.75;;;3.48;71.60
31346;BME280;21711;49.708;18.568;2023-03-08T05:36:07;95800.66;;;3.45;71.44
31346;BME280;21711;49.708;18.568;2023-03-08T05:38:35;95801.16;;;3.52;70.61
31346;BME280;21711;49.708;18.568;2023-03-08T05:41:11;95801.16;;;3.52;71.35
31346;BME280;21711;49.708;18.568;2023-03-08T05:43:39;95789.16;;;3.56;70.38
31346;BME280;21711;49.708;18.568;2023-03-08T05:46:13;95785.50;;;3.47;69.93
31346;BME280;21711;49.708;18.568;2023-03-08T05:48:42;95791.50;;;3.63;69.48
31346;BME280;21711;49.708;18.568;2023-03-08T05:51:16;95779.22;;;3.68;68.89
31346;BME280;21711;49.708;18.568;2023-03-08T05:53:45;95803.25;;;3.65;70.00
31346;BME280;21711;49.708;18.568;2023-03-08T05:56:17;95810.03;;;3.72;70.67
31346;BME280;21711;49.708;18.568;2023-03-08T05:58:54;95807.94;;;3.63;69.92
31346;BME280;21711;49.708;18.568;2023-03-08T06:01:27;95819.47;;;3.62;70.27
31346;BME280;21711;49.708;18.568;2023-03-08T06:04:00;95822.06;;;3.73;70.42
31346;BME280;21711;49.708;18.568;2023-03-08T06:06:31;95812.91;;;3.80;70.18
31346;BME280;21711;49.708;18.568;2023-03-08T06:09:03;95811.63;;;3.78;69.49
31346;BME280;21711;49.708;18.568;2023-03-08T06:11:32;95815.78;;;3.84;69.40
31346;BME280;21711;49.708;18.568;2023-03-08T06:14:01;95810.28;;;3.75;69.54
31346;BME280;21711;49.708;18.568;2023-03-08T06:16:31;95804.03;;;3.76;68.93
31346;BME280;21711;49.708;18.568;2023-03-08T06:18:59;95813.16;;;3.84;69.92
31346;BME280;21711;49.708;18.568;2023-03-08T06:21:27;95811.34;;;3.79;70.39
31346;BME280;21711;49.708;18.568;2023-03-08T06:24:02;95820.75;;;3.91;69.46
31346;BME280;21711;49.708;18.568;2023-03-08T06:26:30;95833.81;;;3.91;69.96
31346;BME280;21711;49.708;18.568;2023-03-08T06:28:58;95826.75;;;3.86;69.91
31346;BME280;21711;49.708;18.568;2023-03-08T06:31:28;95833.53;;;3.87;69.70
31346;BME280;21711;49.708;18.568;2023-03-08T06:33:56;95837.69;;;4.09;69.67
31346;BME280;21711;49.708;18.568;2023-03-08T06:36:26;95846.59;;;4.13;68.88
31346;BME280;21711;49.708;18.568;2023-03-08T06:38:54;95857.56;;;4.15;69.25
31346;BME280;21711;49.708;18.568;2023-03-08T06:41:21;95866.47;;;4.19;69.68
31346;BME280;21711;49.708;18.568;2023-03-08T06:43:52;95860.91;;;4.37;68.25
31346;BME280;21711;49.708;18.568;2023-03-08T06:46:21;95865.88;;;4.43;68.41
31346;BME280;21711;49.708;18.568;2023-03-08T06:48:48;95859.91;;;4.32;68.91
31346;BME280;21711;49.708;18.568;2023-03-08T06:51:17;95866.38;;;4.51;68.42
31346;BME280;21711;49.708;18.568;2023-03-08T06:53:46;95865.09;;;4.48;68.50
31346;BME280;21711;49.708;18.568;2023-03-08T06:56:17;95861.66;;;4.53;68.11
31346;BME280;21711;49.708;18.568;2023-03-08T06:58:44;95864.84;;;4.44;67.92
31346;BME280;21711;49.708;18.568;2023-03-08T07:01:12;95862.75;;;4.41;67.81
31346;BME280;21711;49.708;18.568;2023-03-08T07:03:40;95854.88;;;4.46;68.12
31346;BME280;21711;49.708;18.568;2023-03-08T07:06:09;95853.28;;;4.51;68.44
31346;BME280;21711;49.708;18.568;2023-03-08T07:08:37;95851.69;;;4.60;68.46
31346;BME280;21711;49.708;18.568;2023-03-08T07:11:07;95856.38;;;4.58;66.78
31346;BME280;21711;49.708;18.568;2023-03-08T07:13:36;95861.13;;;4.56;67.30
31346;BME280;21711;49.708;18.568;2023-03-08T07:16:13;95870.53;;;4.62;67.14
31346;BME280;21711;49.708;18.568;2023-03-08T07:18:41;95884.25;;;4.94;66.18
31346;BME280;21711;49.708;18.568;2023-03-08T07:21:08;95877.47;;;4.93;65.93
31346;BME280;21711;49.708;18.568;2023-03-08T07:23:36;95890.97;;;5.16;64.96
31346;BME280;21711;49.708;18.568;2023-03-08T07:26:07;95896.88;;;5.37;65.37
31346;BME280;21711;49.708;18.568;2023-03-08T07:28:36;95901.06;;;5.38;64.70
31346;BME280;21711;49.708;18.568;2023-03-08T07:31:04;95906.41;;;5.62;63.95
31346;BME280;21711;49.708;18.568;2023-03-08T07:33:31;95908.41;;;5.76;63.51
31346;BME280;21711;49.708;18.568;2023-03-08T07:36:00;95891.44;;;5.63;62.74
31346;BME280;21711;49.708;18.568;2023-03-08T07:38:30;95911.22;;;5.85;62.35
31346;BME280;21711;49.708;18.568;2023-03-08T07:40:57;95898.25;;;6.04;60.28
31346;BME280;21711;49.708;18.568;2023-03-08T07:43:24;95906.09;;;6.34;60.53
31346;BME280;21711;49.708;18.568;2023-03-08T07:45:59;95890.63;;;6.81;59.20
31346;BME280;21711;49.708;18.568;2023-03-08T07:48:28;95904.59;;;8.25;56.22
31346;BME280;21711;49.708;18.568;2023-03-08T07:51:04;95918.34;;;10.98;47.52
31346;BME280;21711;49.708;18.568;2023-03-08T07:53:34;95919.22;;;13.12;42.18
31346;BME280;21711;49.708;18.568;2023-03-08T07:56:02;95920.94;;;13.38;39.97
31346;BME280;21711;49.708;18.568;2023-03-08T07:58:29;95929.88;;;14.56;37.68
31346;BME280;21711;49.708;18.568;2023-03-08T08:00:57;95922.66;;;15.32;34.88
31346;BME280;21711;49.708;18.568;2023-03-08T08:03:24;95923.47;;;14.95;36.03
31346;BME280;21711;49.708;18.568;2023-03-08T08:05:52;95936.94;;;15.52;35.13
31346;BME280;21711;49.708;18.568;2023-03-08T08:08:19;95934.75;;;14.08;37.14
31346;BME280;21711;49.708;18.568;2023-03-08T08:10:46;95954.06;;;15.80;34.90
31346;BME280;21711;49.708;18.568;2023-03-08T08:13:13;95949.03;;;14.50;36.09
31346;BME280;21711;49.708;18.568;2023-03-08T08:15:40;95928.25;;;13.84;36.33
31346;BME280;21711;49.708;18.568;2023-03-08T08:18:08;95929.88;;;15.06;35.29
31346;BME280;21711;49.708;18.568;2023-03-08T08:20:35;95929.75;;;16.10;32.97
31346;BME280;21711;49.708;18.568;2023-03-08T08:23:05;95931.56;;;14.98;34.72
31346;BME280;21711;49.708;18.568;2023-03-08T08:25:33;95925.63;;;14.30;35.76
31346;BME280;21711;49.708;18.568;2023-03-08T08:28:00;95918.41;;;13.85;37.25
31346;BME280;21711;49.708;18.568;2023-03-08T08:30:27;95928.03;;;15.60;34.97
31346;BME280;21711;49.708;18.568;2023-03-08T08:32:54;95914.66;;;16.30;32.67
31346;BME280;21711;49.708;18.568;2023-03-08T08:35:22;95908.00;;;15.38;33.85
31346;BME280;21711;49.708;18.568;2023-03-08T08:38:03;95915.31;;;17.43;31.38
31346;BME280;21711;49.708;18.568;2023-03-08T08:40:30;95917.56;;;16.73;32.18
31346;BME280;21711;49.708;18.568;2023-03-08T08:42:57;95908.97;;;16.64;32.28
31346;BME280;21711;49.708;18.568;2023-03-08T08:45:24;95916.09;;;17.44;31.42
31346;BME280;21711;49.708;18.568;2023-03-08T08:47:52;95920.09;;;17.18;30.63
31346;BME280;21711;49.708;18.568;2023-03-08T08:50:19;95915.47;;;16.18;31.72
31346;BME280;21711;49.708;18.568;2023-03-08T08:52:46;95911.28;;;16.98;30.95
31346;BME280;21711;49.708;18.568;2023-03-08T08:55:14;95903.16;;;17.10;30.67
31346;BME280;21711;49.708;18.568;2023-03-08T08:57:41;95900.44;;;16.10;31.95
31346;BME280;21711;49.708;18.568;2023-03-08T09:00:09;95894.06;;;16.14;32.08
31346;BME280;21711;49.708;18.568;2023-03-08T09:02:36;95894.66;;;16.88;31.29
31346;BME280;21711;49.708;18.568;2023-03-08T09:05:04;95900.31;;;17.03;31.37
31346;BME280;21711;49.708;18.568;2023-03-08T09:07:32;95899.41;;;16.30;31.89
31346;BME280;21711;49.708;18.568;2023-03-08T09:09:59;95900.59;;;15.31;33.39
31346;BME280;21711;49.708;18.568;2023-03-08T09:12:28;95913.81;;;15.97;32.36
31346;BME280;21711;49.708;18.568;2023-03-08T09:14:56;95913.88;;;16.62;31.65
31346;BME280;21711;49.708;18.568;2023-03-08T09:17:24;95917.91;;;18.65;29.94
31346;BME280;21711;49.708;18.568;2023-03-08T09:19:52;95905.88;;;17.89;28.80
31346;BME280;21711;49.708;18.568;2023-03-08T09:22:19;95908.72;;;18.90;29.02
31346;BME280;21711;49.708;18.568;2023-03-08T09:24:48;95906.88;;;19.52;28.05
31346;BME280;21711;49.708;18.568;2023-03-08T09:27:15;95901.88;;;19.50;27.70
31346;BME280;21711;49.708;18.568;2023-03-08T09:29:43;95893.19;;;18.06;28.89
31346;BME280;21711;49.708;18.568;2023-03-08T09:32:10;95886.13;;;17.74;30.58
31346;BME280;21711;49.708;18.568;2023-03-08T09:34:37;95881.06;;;18.08;29.58
31346;BME280;21711;49.708;18.568;2023-03-08T09:37:05;95888.16;;;18.71;28.44
31346;BME280;21711;49.708;18.568;2023-03-08T09:39:34;95882.94;;;18.55;28.08
31346;BME280;21711;49.708;18.568;2023-03-08T09:42:03;95878.84;;;18.37;28.02
31346;BME280;21711;49.708;18.568;2023-03-08T09:44:49;95875.38;;;18.60;28.39
31346;BME280;21711;49.708;18.568;2023-03-08T09:49:58;95865.81;;;18.12;28.01
31346;BME280;21711;49.708;18.568;2023-03-08T09:52:42;95843.50;;;17.81;29.38
31346;BME280;21711;49.708;18.568;2023-03-08T09:55:20;95850.25;;;18.42;29.62
31346;BME280;21711;49.708;18.568;2023-03-08T09:59:01;95845.91;;;19.79;27.89
31346;BME280;21711;49.708;18.568;2023-03-08T10:01:37;95850.66;;;19.25;27.47
31346;BME280;21711;49.708;18.568;2023-03-08T10:04:34;95860.34;;;18.29;29.24
31346;BME280;21711;49.708;18.568;2023-03-08T10:10:26;95863.97;;;18.90;27.94
31346;BME280;21711;49.708;18.568;2023-03-08T10:15:48;95858.47;;;17.07;29.17
31346;BME280;21711;49.708;18.568;2023-03-08T10:21:23;95866.38;;;14.80;33.54
31346;BME280;21711;49.708;18.568;2023-03-08T10:24:50;95859.13;;;13.72;33.20
31346;BME280;21711;49.708;18.568;2023-03-08T10:27:22;95857.16;;;13.47;35.18
31346;BME280;21711;49.708;18.568;2023-03-08T10:29:55;95851.81;;;12.83;35.71
31346;BME280;21711;49.708;18.568;2023-03-08T10:32:25;95849.38;;;12.39;37.61
31346;BME280;21711;49.708;18.568;2023-03-08T10:35:01;95846.25;;;12.76;36.83
31346;BME280;21711;49.708;18.568;2023-03-08T10:37:31;95846.53;;;12.44;37.51
31346;BME280;21711;49.708;18.568;2023-03-08T10:40:05;95841.06;;;13.65;36.59
31346;BME280;21711;49.708;18.568;2023-03-08T10:42:34;95844.91;;;13.89;35.33
31346;BME280;21711;49.708;18.568;2023-03-08T10:45:17;95840.59;;;13.50;36.79
31346;BME280;21711;49.708;18.568;2023-03-08T10:47:59;95846.91;;;12.94;35.50
31346;BME280;21711;49.708;18.568;2023-03-08T10:50:31;95846.81;;;13.46;35.21
31346;BME280;21711;49.708;18.568;2023-03-08T10:53:18;95843.50;;;12.25;37.43
31346;BME280;21711;49.708;18.568;2023-03-08T10:55:49;95833.09;;;12.80;37.19
31346;BME280;21711;49.708;18.568;2023-03-08T10:58:35;95839.72;;;13.37;35.55
31346;BME280;21711;49.708;18.568;2023-03-08T11:01:29;95832.44;;;13.47;35.65
31346;BME280;21711;49.708;18.568;2023-03-08T11:04:14;95821.47;;;13.36;34.78
31346;BME280;21711;49.708;18.568;2023-03-08T11:06:42;95813.66;;;12.45;36.21
31346;BME280;21711;49.708;18.568;2023-03-08T11:11:54;95812.13;;;11.88;38.03
31346;BME280;21711;49.708;18.568;2023-03-08T11:14:24;95806.34;;;11.94;38.47
31346;BME280;21711;49.708;18.568;2023-03-08T11:20:29;95796.66;;;11.99;37.94
31346;BME280;21711;49.708;18.568;2023-03-08T11:26:17;95791.28;;;11.68;38.96
31346;BME280;21711;49.708;18.568;2023-03-08T11:32:17;95790.25;;;12.17;38.32
31346;BME280;21711;49.708;18.568;2023-03-08T11:49:08;95753.09;;;10.86;39.12
31346;BME280;21711;49.708;18.568;2023-03-08T11:52:02;95744.53;;;10.98;40.46
31346;BME280;21711;49.708;18.568;2023-03-08T11:57:32;95747.03;;;10.77;40.76
31346;BME280;21711;49.708;18.568;2023-03-08T12:00:22;95749.19;;;10.92;41.60
31346;BME280;21711;49.708;18.568;2023-03-08T12:02:50;95739.09;;;10.86;41.53
31346;BME280;21711;49.708;18.568;2023-03-08T12:05:28;95737.09;;;10.83;40.93
31346;BME280;21711;49.708;18.568;2023-03-08T12:08:11;95733.63;;;11.17;41.53
31346;BME280;21711;49.708;18.568;2023-03-08T12:10:43;95727.28;;;11.10;40.30
31346;BME280;21711;49.708;18.568;2023-03-08T12:13:26;95728.19;;;11.23;39.53
31346;BME280;21711;49.708;18.568;2023-03-08T12:16:27;95726.16;;;11.20;41.21
31346;BME280;21711;49.708;18.568;2023-03-08T12:19:39;95725.25;;;11.07;40.73
31346;BME280;21711;49.708;18.568;2023-03-08T12:28:29;95712.63;;;10.86;40.50
31346;BME280;21711;49.708;18.568;2023-03-08T12:31:20;95716.22;;;10.90;40.59
31346;BME280;21711;49.708;18.568;2023-03-08T12:33:56;95702.22;;;10.98;39.66
31346;BME280;21711;49.708;18.568;2023-03-08T12:36:44;95709.25;;;10.76;39.97
31346;BME280;21711;49.708;18.568;2023-03-08T12:39:35;95700.66;;;10.62;40.62
31346;BME280;21711;49.708;18.568;2023-03-08T12:44:37;95689.81;;;10.46;40.63
31346;BME280;21711;49.708;18.568;2023-03-08T12:49:51;95676.50;;;10.02;41.50
31346;BME280;21711;49.708;18.568;2023-03-08T12:52:31;95675.09;;;10.13;41.33
31346;BME280;21711;49.708;18.568;2023-03-08T12:55:25;95673.22;;;10.05;40.82
31346;BME280;21711;49.708;18.568;2023-03-08T12:58:03;95671.97;;;9.93;41.47
31346;BME280;21711;49.708;18.568;2023-03-08T13:00:37;95672.16;;;10.15;43.22
31346;BME280;21711;49.708;18.568;2023-03-08T13:03:38;95665.69;;;9.71;42.09
31346;BME280;21711;49.708;18.568;2023-03-08T13:09:20;95647.78;;;9.59;42.67
31346;BME280;21711;49.708;18.568;2023-03-08T13:17:41;95643.66;;;9.85;42.75
31346;BME280;21711;49.708;18.568;2023-03-08T13:20:28;95634.19;;;9.93;40.85
31346;BME280;21711;49.708;18.568;2023-03-08T13:28:43;95627.53;;;9.86;40.85
31346;BME280;21711;49.708;18.568;2023-03-08T13:31:22;95629.06;;;9.87;40.60
31346;BME280;21711;49.708;18.568;2023-03-08T13:33:53;95629.41;;;9.95;42.14
31346;BME280;21711;49.708;18.568;2023-03-08T13:36:32;95619.34;;;9.47;41.92
31346;BME280;21711;49.708;18.568;2023-03-08T13:39:06;95625.75;;;9.55;43.98
31346;BME280;21711;49.708;18.568;2023-03-08T13:41:38;95629.00;;;9.61;41.29
31346;BME280;21711;49.708;18.568;2023-03-08T13:44:24;95632.91;;;9.64;41.97
31346;BME280;21711;49.708;18.568;2023-03-08T13:47:11;95623.13;;;9.55;41.37
31346;BME280;21711;49.708;18.568;2023-03-08T13:49:43;95614.38;;;9.46;40.75
31346;BME280;21711;49.708;18.568;2023-03-08T13:52:22;95609.44;;;9.53;40.55
31346;BME280;21711;49.708;18.568;2023-03-08T13:54:56;95596.59;;;9.20;40.04
31346;BME280;21711;49.708;18.568;2023-03-08T13:57:31;95592.03;;;9.43;41.81
31346;BME280;21711;49.708;18.568;2023-03-08T14:00:32;95591.44;;;9.15;42.21
31346;BME280;21711;49.708;18.568;2023-03-08T14:03:04;95594.75;;;9.20;43.82
31346;BME280;21711;49.708;18.568;2023-03-08T14:05:41;95587.44;;;8.86;44.04
31346;BME280;21711;49.708;18.568;2023-03-08T14:08:22;95578.53;;;8.73;44.86
31346;BME280;21711;49.708;18.568;2023-03-08T14:11:03;95581.75;;;9.01;44.90
31346;BME280;21711;49.708;18.568;2023-03-08T14:13:37;95578.03;;;9.02;45.45
31346;BME280;21711;49.708;18.568;2023-03-08T14:16:07;95577.69;;;8.63;46.81
31346;BME280;21711;49.708;18.568;2023-03-08T14:18:40;95584.53;;;8.50;49.16
31346;BME280;21711;49.708;18.568;2023-03-08T14:21:21;95583.78;;;8.50;49.71
31346;BME280;21711;49.708;18.568;2023-03-08T14:23:59;95590.59;;;8.28;49.36
31346;BME280;21711;49.708;18.568;2023-03-08T14:26:39;95593.91;;;8.79;48.84
31346;BME280;21711;49.708;18.568;2023-03-08T14:29:17;95586.31;;;8.78;48.57
31346;BME280;21711;49.708;18.568;2023-03-08T14:34:40;95571.94;;;8.15;52.14
31346;BME280;21711;49.708;18.568;2023-03-08T14:42:44;95564.34;;;8.00;52.72